sensor_id;sensor_type;location;lat;lon;timestamp;P1;durP1;ratioP1;P2;durP2;ratioP2
15071;SDS011;7635;56.696;13.002;2024-01-10T00:00:03;2.63;;;2.17;;
15071;SDS011;7635;56.696;13.002;2024-01-10T00:02:34;4.23;;;2.37;;
15071;SDS011;7635;56.696;13.002;2024-01-10T00:05:32;2.07;;;1.90;;
15071;SDS011;7635;56.696;13.002;2024-01-10T00:08:15;3.00;;;2.60;;
15071;SDS011;7635;56.696;13.002;2024-01-10T00:10:44;2.90;;;2.43;;
15071;SDS011;7635;56.696;13.002;2024-01-10T00:13:16;4.70;;;2.70;;
15071;SDS011;7635;56.696;13.002;2024-01-10T00:15:58;2.20;;;2.00;;
15071;SDS011;7635;56.696;13.002;2024-01-10T00:18:35;5.60;;;2.33;;
15071;SDS011;7635;56.696;13.002;2024-01-10T00:21:11;5.03;;;2.50;;
15071;SDS011;7635;56.696;13.002;2024-01-10T00:23:44;3.03;;;2.40;;
15071;SDS011;7635;56.696;13.002;2024-01-10T00:26:26;6.30;;;2.80;;
15071;SDS011;7635;56.696;13.002;2024-01-10T00:29:05;2.93;;;2.60;;
15071;SDS011;7635;56.696;13.002;2024-01-10T00:31:39;2.33;;;2.03;;
15071;SDS011;7635;56.696;13.002;2024-01-10T00:34:16;3.77;;;3.03;;
15071;SDS011;7635;56.696;13.002;2024-01-10T00:37:01;2.60;;;2.30;;
15071;SDS011;7635;56.696;13.002;2024-01-10T00:39:45;2.53;;;2.33;;
15071;SDS011;7635;56.696;13.002;2024-01-10T00:42:15;4.17;;;3.23;;
15071;SDS011;7635;56.696;13.002;2024-01-10T00:44:49;3.20;;;2.83;;
15071;SDS011;7635;56.696;13.002;2024-01-10T00:47:20;3.47;;;2.50;;
15071;SDS011;7635;56.696;13.002;2024-01-10T00:50:07;3.20;;;2.83;;
15071;SDS011;7635;56.696;13.002;2024-01-10T00:52:34;3.20;;;2.80;;
15071;SDS011;7635;56.696;13.002;2024-01-10T00:55:02;4.40;;;3.10;;
15071;SDS011;7635;56.696;13.002;2024-01-10T00:57:48;4.43;;;3.30;;
15071;SDS011;7635;56.696;13.002;2024-01-10T01:03:12;3.67;;;2.83;;
15071;SDS011;7635;56.696;13.002;2024-01-10T01:05:47;2.77;;;2.57;;
15071;SDS011;7635;56.696;13.002;2024-01-10T01:11:07;3.83;;;2.83;;
15071;SDS011;7635;56.696;13.002;2024-01-10T01:13:35;5.17;;;3.13;;
15071;SDS011;7635;56.696;13.002;2024-01-10T01:16:03;3.40;;;2.87;;
15071;SDS011;7635;56.696;13.002;2024-01-10T01:24:30;5.63;;;3.00;;
15071;SDS011;7635;56.696;13.002;2024-01-10T01:27:23;3.33;;;2.47;;
15071;SDS011;7635;56.696;13.002;2024-01-10T01:30:03;3.53;;;3.23;;
15071;SDS011;7635;56.696;13.002;2024-01-10T01:32:43;3.20;;;2.80;;
15071;SDS011;7635;56.696;13.002;2024-01-10T01:35:42;4.23;;;2.73;;
15071;SDS011;7635;56.696;13.002;2024-01-10T01:38:19;4.00;;;2.93;;
15071;SDS011;7635;56.696;13.002;2024-01-10T01:40:46;4.43;;;3.30;;
15071;SDS011;7635;56.696;13.002;2024-01-10T01:43:25;4.40;;;3.10;;
15071;SDS011;7635;56.696;13.002;2024-01-10T01:45:59;4.20;;;2.70;;
15071;SDS011;7635;56.696;13.002;2024-01-10T01:48:38;4.47;;;2.73;;
15071;SDS011;7635;56.696;13.002;2024-01-10T01:51:11;4.67;;;3.17;;
15071;SDS011;7635;56.696;13.002;2024-01-10T01:54:01;3.07;;;2.77;;
15071;SDS011;7635;56.696;13.002;2024-01-10T01:56:31;3.67;;;3.17;;
15071;SDS011;7635;56.696;13.002;2024-01-10T02:00:18;5.00;;;3.50;;
15071;SDS011;7635;56.696;13.002;2024-01-10T02:05:06;5.30;;;3.20;;
15071;SDS011;7635;56.696;13.002;2024-01-10T02:07:40;4.03;;;2.93;;
15071;SDS011;7635;56.696;13.002;2024-01-10T02:13:11;4.70;;;3.37;;
15071;SDS011;7635;56.696;13.002;2024-01-10T02:15:46;6.50;;;2.57;;
15071;SDS011;7635;56.696;13.002;2024-01-10T02:18:13;5.03;;;3.57;;
15071;SDS011;7635;56.696;13.002;2024-01-10T02:21:33;4.47;;;2.90;;
15071;SDS011;7635;56.696;13.002;2024-01-10T02:23:54;3.73;;;3.17;;
15071;SDS011;7635;56.696;13.002;2024-01-10T02:26:24;3.87;;;3.27;;
15071;SDS011;7635;56.696;13.002;2024-01-10T02:28:58;4.73;;;3.37;;
15071;SDS011;7635;56.696;13.002;2024-01-10T02:31:29;7.33;;;3.53;;
15071;SDS011;7635;56.696;13.002;2024-01-10T02:34:04;6.23;;;3.03;;
15071;SDS011;7635;56.696;13.002;2024-01-10T02:36:41;4.87;;;3.70;;
15071;SDS011;7635;56.696;13.002;2024-01-10T02:39:09;4.00;;;2.90;;
15071;SDS011;7635;56.696;13.002;2024-01-10T02:41:47;5.67;;;3.27;;
15071;SDS011;7635;56.696;13.002;2024-01-10T02:44:16;5.57;;;3.47;;
15071;SDS011;7635;56.696;13.002;2024-01-10T02:46:52;5.83;;;3.47;;
15071;SDS011;7635;56.696;13.002;2024-01-10T02:49:31;4.37;;;3.00;;
15071;SDS011;7635;56.696;13.002;2024-01-10T02:51:58;4.60;;;3.43;;
15071;SDS011;7635;56.696;13.002;2024-01-10T02:54:44;5.30;;;3.50;;
15071;SDS011;7635;56.696;13.002;2024-01-10T02:57:16;4.40;;;3.33;;
15071;SDS011;7635;56.696;13.002;2024-01-10T02:59:46;6.80;;;3.43;;
15071;SDS011;7635;56.696;13.002;2024-01-10T03:02:13;4.10;;;3.50;;
15071;SDS011;7635;56.696;13.002;2024-01-10T03:04:52;5.77;;;3.53;;
15071;SDS011;7635;56.696;13.002;2024-01-10T03:07:22;3.93;;;3.07;;
15071;SDS011;7635;56.696;13.002;2024-01-10T03:09:53;5.67;;;4.03;;
15071;SDS011;7635;56.696;13.002;2024-01-10T03:12:22;4.37;;;3.30;;
15071;SDS011;7635;56.696;13.002;2024-01-10T03:14:50;5.47;;;3.23;;
15071;SDS011;7635;56.696;13.002;2024-01-10T03:17:41;7.17;;;3.50;;
15071;SDS011;7635;56.696;13.002;2024-01-10T03:20:12;3.30;;;3.00;;
15071;SDS011;7635;56.696;13.002;2024-01-10T03:23:00;7.47;;;4.03;;
15071;SDS011;7635;56.696;13.002;2024-01-10T03:25:28;4.70;;;3.23;;
15071;SDS011;7635;56.696;13.002;2024-01-10T03:27:57;5.13;;;3.30;;
15071;SDS011;7635;56.696;13.002;2024-01-10T03:30:25;4.67;;;3.23;;
15071;SDS011;7635;56.696;13.002;2024-01-10T03:32:57;3.97;;;3.07;;
15071;SDS011;7635;56.696;13.002;2024-01-10T03:35:25;4.60;;;2.73;;
15071;SDS011;7635;56.696;13.002;2024-01-10T03:37:52;3.63;;;3.03;;
15071;SDS011;7635;56.696;13.002;2024-01-10T03:40:20;5.70;;;3.43;;
15071;SDS011;7635;56.696;13.002;2024-01-10T03:43:03;5.30;;;3.70;;
15071;SDS011;7635;56.696;13.002;2024-01-10T03:45:31;4.50;;;3.50;;
15071;SDS011;7635;56.696;13.002;2024-01-10T03:48:03;3.50;;;2.90;;
15071;SDS011;7635;56.696;13.002;2024-01-10T03:50:34;5.00;;;2.97;;
15071;SDS011;7635;56.696;13.002;2024-01-10T03:53:01;4.73;;;3.43;;
15071;SDS011;7635;56.696;13.002;2024-01-10T03:55:36;5.67;;;3.57;;
15071;SDS011;7635;56.696;13.002;2024-01-10T03:58:16;4.43;;;3.60;;
15071;SDS011;7635;56.696;13.002;2024-01-10T04:00:43;5.83;;;3.33;;
15071;SDS011;7635;56.696;13.002;2024-01-10T04:03:17;4.40;;;3.50;;
15071;SDS011;7635;56.696;13.002;2024-01-10T04:05:44;4.87;;;3.47;;
15071;SDS011;7635;56.696;13.002;2024-01-10T04:08:11;4.57;;;3.20;;
15071;SDS011;7635;56.696;13.002;2024-01-10T04:10:39;5.50;;;3.27;;
15071;SDS011;7635;56.696;13.002;2024-01-10T04:13:06;4.73;;;3.43;;
15071;SDS011;7635;56.696;13.002;2024-01-10T04:15:37;7.43;;;4.03;;
15071;SDS011;7635;56.696;13.002;2024-01-10T04:18:06;4.80;;;3.40;;
15071;SDS011;7635;56.696;13.002;2024-01-10T04:20:33;5.63;;;3.63;;
15071;SDS011;7635;56.696;13.002;2024-01-10T04:23:23;5.93;;;3.60;;
15071;SDS011;7635;56.696;13.002;2024-01-10T04:25:50;4.77;;;3.47;;
15071;SDS011;7635;56.696;13.002;2024-01-10T04:28:22;3.90;;;2.97;;
15071;SDS011;7635;56.696;13.002;2024-01-10T04:31:02;4.30;;;3.07;;
15071;SDS011;7635;56.696;13.002;2024-01-10T04:33:30;5.87;;;3.97;;
15071;SDS011;7635;56.696;13.002;2024-01-10T04:35:57;4.53;;;3.43;;
15071;SDS011;7635;56.696;13.002;2024-01-10T04:38:38;5.80;;;3.57;;
15071;SDS011;7635;56.696;13.002;2024-01-10T04:41:05;4.73;;;3.63;;
15071;SDS011;7635;56.696;13.002;2024-01-10T04:43:40;6.40;;;3.60;;
15071;SDS011;7635;56.696;13.002;2024-01-10T04:46:09;4.73;;;3.43;;
15071;SDS011;7635;56.696;13.002;2024-01-10T04:48:56;4.20;;;3.20;;
15071;SDS011;7635;56.696;13.002;2024-01-10T04:51:23;4.07;;;3.00;;
15071;SDS011;7635;56.696;13.002;2024-01-10T04:53:56;4.93;;;3.73;;
15071;SDS011;7635;56.696;13.002;2024-01-10T04:56:34;4.97;;;3.37;;
15071;SDS011;7635;56.696;13.002;2024-01-10T04:59:02;6.77;;;3.90;;
15071;SDS011;7635;56.696;13.002;2024-01-10T05:01:53;6.03;;;3.40;;
15071;SDS011;7635;56.696;13.002;2024-01-10T05:04:21;7.10;;;3.93;;
15071;SDS011;7635;56.696;13.002;2024-01-10T05:07:13;5.83;;;3.47;;
15071;SDS011;7635;56.696;13.002;2024-01-10T05:09:43;4.47;;;3.50;;
15071;SDS011;7635;56.696;13.002;2024-01-10T05:12:10;5.80;;;4.03;;
15071;SDS011;7635;56.696;13.002;2024-01-10T05:14:43;8.03;;;3.87;;
15071;SDS011;7635;56.696;13.002;2024-01-10T05:17:12;8.23;;;4.17;;
15071;SDS011;7635;56.696;13.002;2024-01-10T05:19:42;7.80;;;3.77;;
15071;SDS011;7635;56.696;13.002;2024-01-10T05:24:54;6.10;;;3.40;;
15071;SDS011;7635;56.696;13.002;2024-01-10T05:30:30;4.93;;;3.00;;
15071;SDS011;7635;56.696;13.002;2024-01-10T05:32:59;6.77;;;3.53;;
15071;SDS011;7635;56.696;13.002;2024-01-10T05:35:29;5.37;;;3.57;;
15071;SDS011;7635;56.696;13.002;2024-01-10T05:38:02;4.97;;;3.83;;
15071;SDS011;7635;56.696;13.002;2024-01-10T05:40:30;5.63;;;3.40;;
15071;SDS011;7635;56.696;13.002;2024-01-10T05:42:58;5.70;;;3.87;;
15071;SDS011;7635;56.696;13.002;2024-01-10T05:45:32;6.00;;;3.50;;
15071;SDS011;7635;56.696;13.002;2024-01-10T05:48:01;5.43;;;3.40;;
15071;SDS011;7635;56.696;13.002;2024-01-10T05:50:33;6.43;;;3.27;;
15071;SDS011;7635;56.696;13.002;2024-01-10T05:53:00;8.47;;;3.37;;
15071;SDS011;7635;56.696;13.002;2024-01-10T05:58:19;4.60;;;3.13;;
15071;SDS011;7635;56.696;13.002;2024-01-10T06:00:49;3.90;;;3.27;;
15071;SDS011;7635;56.696;13.002;2024-01-10T06:03:26;5.43;;;2.80;;
15071;SDS011;7635;56.696;13.002;2024-01-10T06:05:57;3.97;;;2.83;;
15071;SDS011;7635;56.696;13.002;2024-01-10T06:08:40;2.67;;;2.47;;
15071;SDS011;7635;56.696;13.002;2024-01-10T06:11:08;3.57;;;3.10;;
15071;SDS011;7635;56.696;13.002;2024-01-10T06:13:43;2.97;;;2.60;;
15071;SDS011;7635;56.696;13.002;2024-01-10T06:16:24;3.13;;;2.80;;
15071;SDS011;7635;56.696;13.002;2024-01-10T06:18:53;2.83;;;2.53;;
15071;SDS011;7635;56.696;13.002;2024-01-10T06:21:23;4.20;;;2.73;;
15071;SDS011;7635;56.696;13.002;2024-01-10T06:23:52;3.13;;;2.10;;
15071;SDS011;7635;56.696;13.002;2024-01-10T06:26:19;2.60;;;2.40;;
15071;SDS011;7635;56.696;13.002;2024-01-10T06:35:06;2.70;;;2.50;;
15071;SDS011;7635;56.696;13.002;2024-01-10T06:37:34;2.80;;;2.23;;
15071;SDS011;7635;56.696;13.002;2024-01-10T06:40:02;3.13;;;2.43;;
15071;SDS011;7635;56.696;13.002;2024-01-10T06:42:36;2.93;;;2.57;;
15071;SDS011;7635;56.696;13.002;2024-01-10T06:45:22;4.60;;;2.53;;
15071;SDS011;7635;56.696;13.002;2024-01-10T06:48:07;3.40;;;2.17;;
15071;SDS011;7635;56.696;13.002;2024-01-10T06:50:53;3.90;;;2.80;;
15071;SDS011;7635;56.696;13.002;2024-01-10T06:53:45;3.60;;;2.73;;
15071;SDS011;7635;56.696;13.002;2024-01-10T06:56:17;3.27;;;2.83;;
15071;SDS011;7635;56.696;13.002;2024-01-10T07:02:02;3.40;;;2.83;;
15071;SDS011;7635;56.696;13.002;2024-01-10T07:04:46;2.83;;;2.47;;
15071;SDS011;7635;56.696;13.002;2024-01-10T07:07:18;2.60;;;2.30;;
15071;SDS011;7635;56.696;13.002;2024-01-10T07:09:47;6.70;;;3.13;;
15071;SDS011;7635;56.696;13.002;2024-01-10T07:12:17;6.07;;;3.63;;
15071;SDS011;7635;56.696;13.002;2024-01-10T07:14:44;8.73;;;5.83;;
15071;SDS011;7635;56.696;13.002;2024-01-10T07:17:12;4.77;;;3.87;;
15071;SDS011;7635;56.696;13.002;2024-01-10T07:19:42;4.53;;;3.20;;
15071;SDS011;7635;56.696;13.002;2024-01-10T07:22:15;5.90;;;2.97;;
15071;SDS011;7635;56.696;13.002;2024-01-10T07:24:48;4.30;;;3.00;;
15071;SDS011;7635;56.696;13.002;2024-01-10T07:27:15;6.57;;;3.80;;
15071;SDS011;7635;56.696;13.002;2024-01-10T07:29:54;4.07;;;3.67;;
15071;SDS011;7635;56.696;13.002;2024-01-10T07:32:22;3.70;;;3.30;;
15071;SDS011;7635;56.696;13.002;2024-01-10T07:34:53;7.10;;;5.60;;
15071;SDS011;7635;56.696;13.002;2024-01-10T07:37:20;6.87;;;4.20;;
15071;SDS011;7635;56.696;13.002;2024-01-10T07:39:49;4.43;;;3.60;;
15071;SDS011;7635;56.696;13.002;2024-01-10T07:42:16;5.03;;;3.50;;
15071;SDS011;7635;56.696;13.002;2024-01-10T07:44:47;3.70;;;2.87;;
15071;SDS011;7635;56.696;13.002;2024-01-10T07:47:14;3.90;;;2.90;;
15071;SDS011;7635;56.696;13.002;2024-01-10T07:49:41;2.80;;;2.23;;
15071;SDS011;7635;56.696;13.002;2024-01-10T07:52:09;3.93;;;3.00;;
15071;SDS011;7635;56.696;13.002;2024-01-10T07:54:36;2.90;;;2.47;;
15071;SDS011;7635;56.696;13.002;2024-01-10T07:57:05;3.33;;;2.60;;
15071;SDS011;7635;56.696;13.002;2024-01-10T07:59:44;2.77;;;2.40;;
15071;SDS011;7635;56.696;13.002;2024-01-10T08:05:17;2.77;;;2.40;;
15071;SDS011;7635;56.696;13.002;2024-01-10T08:07:49;3.20;;;2.60;;
15071;SDS011;7635;56.696;13.002;2024-01-10T08:10:18;2.83;;;2.60;;
15071;SDS011;7635;56.696;13.002;2024-01-10T08:12:47;3.50;;;3.20;;
15071;SDS011;7635;56.696;13.002;2024-01-10T08:15:28;2.87;;;2.57;;
15071;SDS011;7635;56.696;13.002;2024-01-10T08:17:59;4.87;;;3.10;;
15071;SDS011;7635;56.696;13.002;2024-01-10T08:20:53;4.13;;;2.80;;
15071;SDS011;7635;56.696;13.002;2024-01-10T08:23:20;4.50;;;3.30;;
15071;SDS011;7635;56.696;13.002;2024-01-10T08:26:02;3.90;;;2.53;;
15071;SDS011;7635;56.696;13.002;2024-01-10T08:28:37;4.43;;;2.80;;
15071;SDS011;7635;56.696;13.002;2024-01-10T08:31:08;3.37;;;2.60;;
15071;SDS011;7635;56.696;13.002;2024-01-10T08:33:44;2.87;;;2.27;;
15071;SDS011;7635;56.696;13.002;2024-01-10T08:36:12;2.30;;;2.10;;
15071;SDS011;7635;56.696;13.002;2024-01-10T08:38:40;2.93;;;2.27;;
15071;SDS011;7635;56.696;13.002;2024-01-10T08:41:23;2.80;;;2.10;;
15071;SDS011;7635;56.696;13.002;2024-01-10T08:43:55;3.93;;;2.80;;
15071;SDS011;7635;56.696;13.002;2024-01-10T08:46:22;2.50;;;2.30;;
15071;SDS011;7635;56.696;13.002;2024-01-10T08:48:53;2.70;;;2.40;;
15071;SDS011;7635;56.696;13.002;2024-01-10T08:51:23;2.60;;;2.40;;
15071;SDS011;7635;56.696;13.002;2024-01-10T08:54:03;3.20;;;2.43;;
15071;SDS011;7635;56.696;13.002;2024-01-10T08:56:48;3.13;;;2.83;;
15071;SDS011;7635;56.696;13.002;2024-01-10T08:59:22;3.63;;;2.90;;
15071;SDS011;7635;56.696;13.002;2024-01-10T09:02:00;3.00;;;2.43;;
15071;SDS011;7635;56.696;13.002;2024-01-10T09:10:51;2.70;;;2.50;;
15071;SDS011;7635;56.696;13.002;2024-01-10T09:13:42;2.53;;;2.23;;
15071;SDS011;7635;56.696;13.002;2024-01-10T09:16:17;4.23;;;2.63;;
15071;SDS011;7635;56.696;13.002;2024-01-10T09:18:47;3.27;;;2.30;;
15071;SDS011;7635;56.696;13.002;2024-01-10T09:21:18;3.03;;;2.73;;
15071;SDS011;7635;56.696;13.002;2024-01-10T09:23:52;3.00;;;2.37;;
15071;SDS011;7635;56.696;13.002;2024-01-10T09:26:21;4.03;;;2.87;;
15071;SDS011;7635;56.696;13.002;2024-01-10T09:29:02;3.37;;;2.33;;
15071;SDS011;7635;56.696;13.002;2024-01-10T09:31:36;2.63;;;2.33;;
15071;SDS011;7635;56.696;13.002;2024-01-10T09:34:20;3.53;;;2.80;;
15071;SDS011;7635;56.696;13.002;2024-01-10T09:36:54;6.13;;;2.50;;
15071;SDS011;7635;56.696;13.002;2024-01-10T09:39:21;3.70;;;3.13;;
15071;SDS011;7635;56.696;13.002;2024-01-10T09:41:49;3.63;;;2.97;;
15071;SDS011;7635;56.696;13.002;2024-01-10T09:44:25;2.90;;;2.43;;
15071;SDS011;7635;56.696;13.002;2024-01-10T09:46:54;2.93;;;2.63;;
15071;SDS011;7635;56.696;13.002;2024-01-10T09:49:22;3.87;;;2.73;;
15071;SDS011;7635;56.696;13.002;2024-01-10T09:52:05;2.83;;;2.50;;
15071;SDS011;7635;56.696;13.002;2024-01-10T09:54:40;3.40;;;3.10;;
15071;SDS011;7635;56.696;13.002;2024-01-10T09:57:10;4.17;;;2.67;;
15071;SDS011;7635;56.696;13.002;2024-01-10T09:59:37;3.07;;;2.73;;
15071;SDS011;7635;56.696;13.002;2024-01-10T10:02:06;4.33;;;2.77;;
15071;SDS011;7635;56.696;13.002;2024-01-10T10:04:56;3.43;;;2.70;;
15071;SDS011;7635;56.696;13.002;2024-01-10T10:07:46;3.47;;;2.53;;
15071;SDS011;7635;56.696;13.002;2024-01-10T10:10:21;3.53;;;2.87;;
15071;SDS011;7635;56.696;13.002;2024-01-10T10:12:57;2.60;;;2.40;;
15071;SDS011;7635;56.696;13.002;2024-01-10T10:15:25;5.47;;;3.40;;
15071;SDS011;7635;56.696;13.002;2024-01-10T10:17:54;3.20;;;2.57;;
15071;SDS011;7635;56.696;13.002;2024-01-10T10:20:22;3.33;;;2.77;;
15071;SDS011;7635;56.696;13.002;2024-01-10T10:23:03;3.77;;;2.53;;
15071;SDS011;7635;56.696;13.002;2024-01-10T10:25:31;3.90;;;2.57;;
15071;SDS011;7635;56.696;13.002;2024-01-10T10:27:59;3.23;;;2.73;;
15071;SDS011;7635;56.696;13.002;2024-01-10T10:30:43;3.87;;;2.60;;
15071;SDS011;7635;56.696;13.002;2024-01-10T10:33:27;2.90;;;2.50;;
15071;SDS011;7635;56.696;13.002;2024-01-10T10:36:02;2.90;;;2.33;;
15071;SDS011;7635;56.696;13.002;2024-01-10T10:38:30;3.67;;;2.67;;
15071;SDS011;7635;56.696;13.002;2024-01-10T10:40:57;4.37;;;3.33;;
15071;SDS011;7635;56.696;13.002;2024-01-10T10:43:26;3.57;;;2.67;;
15071;SDS011;7635;56.696;13.002;2024-01-10T10:45:53;4.67;;;3.23;;
15071;SDS011;7635;56.696;13.002;2024-01-10T10:48:22;4.50;;;2.97;;
15071;SDS011;7635;56.696;13.002;2024-01-10T10:51:03;6.97;;;3.43;;
15071;SDS011;7635;56.696;13.002;2024-01-10T10:53:33;3.20;;;2.90;;
15071;SDS011;7635;56.696;13.002;2024-01-10T10:56:11;3.40;;;2.50;;
15071;SDS011;7635;56.696;13.002;2024-01-10T10:58:42;4.50;;;3.10;;
15071;SDS011;7635;56.696;13.002;2024-01-10T11:01:11;4.73;;;3.17;;
15071;SDS011;7635;56.696;13.002;2024-01-10T11:03:39;4.00;;;3.17;;
15071;SDS011;7635;56.696;13.002;2024-01-10T11:06:09;3.80;;;2.80;;
15071;SDS011;7635;56.696;13.002;2024-01-10T11:08:37;5.03;;;3.17;;
15071;SDS011;7635;56.696;13.002;2024-01-10T11:11:05;4.33;;;3.07;;
15071;SDS011;7635;56.696;13.002;2024-01-10T11:13:38;5.60;;;3.30;;
15071;SDS011;7635;56.696;13.002;2024-01-10T11:16:22;3.80;;;2.97;;
15071;SDS011;7635;56.696;13.002;2024-01-10T11:19:21;4.70;;;3.30;;
15071;SDS011;7635;56.696;13.002;2024-01-10T11:22:07;4.40;;;2.93;;
15071;SDS011;7635;56.696;13.002;2024-01-10T11:24:37;4.57;;;3.10;;
15071;SDS011;7635;56.696;13.002;2024-01-10T11:27:15;5.10;;;3.60;;
15071;SDS011;7635;56.696;13.002;2024-01-10T11:29:43;7.17;;;3.83;;
15071;SDS011;7635;56.696;13.002;2024-01-10T11:35:05;5.33;;;3.33;;
15071;SDS011;7635;56.696;13.002;2024-01-10T11:37:42;5.77;;;4.03;;
15071;SDS011;7635;56.696;13.002;2024-01-10T11:40:23;4.97;;;3.27;;
15071;SDS011;7635;56.696;13.002;2024-01-10T11:43:11;4.80;;;3.17;;
15071;SDS011;7635;56.696;13.002;2024-01-10T11:45:54;4.30;;;3.30;;
15071;SDS011;7635;56.696;13.002;2024-01-10T11:48:25;5.13;;;3.37;;
15071;SDS011;7635;56.696;13.002;2024-01-10T11:51:04;4.10;;;3.03;;
15071;SDS011;7635;56.696;13.002;2024-01-10T11:53:45;7.23;;;3.63;;
15071;SDS011;7635;56.696;13.002;2024-01-10T11:56:48;5.73;;;3.90;;
15071;SDS011;7635;56.696;13.002;2024-01-10T11:59:18;4.90;;;3.23;;
15071;SDS011;7635;56.696;13.002;2024-01-10T12:01:46;6.73;;;3.70;;
15071;SDS011;7635;56.696;13.002;2024-01-10T12:04:14;5.97;;;3.70;;
15071;SDS011;7635;56.696;13.002;2024-01-10T12:06:44;5.50;;;3.60;;
15071;SDS011;7635;56.696;13.002;2024-01-10T12:09:29;6.50;;;3.53;;
15071;SDS011;7635;56.696;13.002;2024-01-10T12:12:02;5.47;;;3.93;;
15071;SDS011;7635;56.696;13.002;2024-01-10T12:14:36;8.00;;;3.60;;
15071;SDS011;7635;56.696;13.002;2024-01-10T12:17:03;5.97;;;3.67;;
15071;SDS011;7635;56.696;13.002;2024-01-10T12:19:34;5.07;;;3.67;;
15071;SDS011;7635;56.696;13.002;2024-01-10T12:22:04;6.73;;;3.37;;
15071;SDS011;7635;56.696;13.002;2024-01-10T12:24:33;6.20;;;3.67;;
15071;SDS011;7635;56.696;13.002;2024-01-10T12:27:15;6.50;;;3.33;;
15071;SDS011;7635;56.696;13.002;2024-01-10T12:29:43;5.30;;;3.13;;
15071;SDS011;7635;56.696;13.002;2024-01-10T12:32:20;5.90;;;3.20;;
15071;SDS011;7635;56.696;13.002;2024-01-10T12:34:47;4.77;;;2.97;;
15071;SDS011;7635;56.696;13.002;2024-01-10T12:37:15;6.03;;;3.60;;
15071;SDS011;7635;56.696;13.002;2024-01-10T12:39:47;4.30;;;3.50;;
15071;SDS011;7635;56.696;13.002;2024-01-10T12:42:15;6.00;;;3.50;;
15071;SDS011;7635;56.696;13.002;2024-01-10T12:44:43;6.37;;;3.57;;
15071;SDS011;7635;56.696;13.002;2024-01-10T12:47:34;8.07;;;3.97;;
15071;SDS011;7635;56.696;13.002;2024-01-10T12:50:05;7.40;;;3.93;;
15071;SDS011;7635;56.696;13.002;2024-01-10T12:52:35;6.47;;;4.17;;
15071;SDS011;7635;56.696;13.002;2024-01-10T12:55:15;7.37;;;4.13;;
15071;SDS011;7635;56.696;13.002;2024-01-10T12:57:45;7.33;;;3.57;;
15071;SDS011;7635;56.696;13.002;2024-01-10T13:00:15;4.53;;;3.37;;
15071;SDS011;7635;56.696;13.002;2024-01-10T13:02:49;6.90;;;3.70;;
15071;SDS011;7635;56.696;13.002;2024-01-10T13:05:31;5.40;;;3.40;;
15071;SDS011;7635;56.696;13.002;2024-01-10T13:08:04;6.87;;;3.70;;
15071;SDS011;7635;56.696;13.002;2024-01-10T13:10:34;6.53;;;3.87;;
15071;SDS011;7635;56.696;13.002;2024-01-10T13:13:02;7.90;;;3.37;;
15071;SDS011;7635;56.696;13.002;2024-01-10T13:15:30;11.80;;;4.17;;
15071;SDS011;7635;56.696;13.002;2024-01-10T13:17:59;8.60;;;4.27;;
15071;SDS011;7635;56.696;13.002;2024-01-10T13:20:36;8.23;;;3.53;;
15071;SDS011;7635;56.696;13.002;2024-01-10T13:23:04;5.87;;;3.87;;
15071;SDS011;7635;56.696;13.002;2024-01-10T13:25:37;4.60;;;3.20;;
15071;SDS011;7635;56.696;13.002;2024-01-10T13:28:10;4.90;;;3.13;;
15071;SDS011;7635;56.696;13.002;2024-01-10T13:30:54;5.97;;;3.40;;
15071;SDS011;7635;56.696;13.002;2024-01-10T13:33:24;5.90;;;3.53;;
15071;SDS011;7635;56.696;13.002;2024-01-10T13:35:51;7.00;;;3.50;;
15071;SDS011;7635;56.696;13.002;2024-01-10T13:38:18;5.67;;;3.63;;
15071;SDS011;7635;56.696;13.002;2024-01-10T13:40:48;7.07;;;3.03;;
15071;SDS011;7635;56.696;13.002;2024-01-10T13:43:15;5.63;;;3.40;;
15071;SDS011;7635;56.696;13.002;2024-01-10T13:45:42;7.00;;;3.87;;
15071;SDS011;7635;56.696;13.002;2024-01-10T13:48:10;6.70;;;3.20;;
15071;SDS011;7635;56.696;13.002;2024-01-10T13:50:37;4.10;;;3.00;;
15071;SDS011;7635;56.696;13.002;2024-01-10T13:53:04;4.50;;;3.13;;
15071;SDS011;7635;56.696;13.002;2024-01-10T13:55:31;5.70;;;3.10;;
15071;SDS011;7635;56.696;13.002;2024-01-10T13:58:01;5.77;;;3.13;;
15071;SDS011;7635;56.696;13.002;2024-01-10T14:00:29;5.30;;;3.50;;
15071;SDS011;7635;56.696;13.002;2024-01-10T14:03:10;6.43;;;3.03;;
15071;SDS011;7635;56.696;13.002;2024-01-10T14:05:41;5.43;;;3.10;;
15071;SDS011;7635;56.696;13.002;2024-01-10T14:08:09;5.37;;;3.23;;
15071;SDS011;7635;56.696;13.002;2024-01-10T14:10:37;4.67;;;3.53;;
15071;SDS011;7635;56.696;13.002;2024-01-10T14:13:06;6.40;;;3.20;;
15071;SDS011;7635;56.696;13.002;2024-01-10T14:15:34;5.83;;;3.40;;
15071;SDS011;7635;56.696;13.002;2024-01-10T14:18:01;5.10;;;2.97;;
15071;SDS011;7635;56.696;13.002;2024-01-10T14:20:43;4.70;;;2.90;;
15071;SDS011;7635;56.696;13.002;2024-01-10T14:23:10;5.17;;;2.83;;
15071;SDS011;7635;56.696;13.002;2024-01-10T14:25:37;7.40;;;3.67;;
15071;SDS011;7635;56.696;13.002;2024-01-10T14:28:10;5.40;;;3.50;;
15071;SDS011;7635;56.696;13.002;2024-01-10T14:30:53;5.90;;;3.13;;
15071;SDS011;7635;56.696;13.002;2024-01-10T14:33:40;3.80;;;3.00;;
15071;SDS011;7635;56.696;13.002;2024-01-10T14:36:16;4.50;;;3.00;;
15071;SDS011;7635;56.696;13.002;2024-01-10T14:47:00;5.30;;;3.30;;
15071;SDS011;7635;56.696;13.002;2024-01-10T14:49:30;5.03;;;2.87;;
15071;SDS011;7635;56.696;13.002;2024-01-10T14:51:57;5.10;;;2.93;;
15071;SDS011;7635;56.696;13.002;2024-01-10T14:54:31;4.40;;;2.90;;
15071;SDS011;7635;56.696;13.002;2024-01-10T14:57:05;5.00;;;2.63;;
15071;SDS011;7635;56.696;13.002;2024-01-10T14:59:54;3.83;;;2.53;;
15071;SDS011;7635;56.696;13.002;2024-01-10T15:02:42;5.70;;;3.20;;
15071;SDS011;7635;56.696;13.002;2024-01-10T15:05:10;3.93;;;2.67;;
15071;SDS011;7635;56.696;13.002;2024-01-10T15:07:40;5.37;;;2.83;;
15071;SDS011;7635;56.696;13.002;2024-01-10T15:10:08;5.43;;;2.87;;
15071;SDS011;7635;56.696;13.002;2024-01-10T15:12:38;4.57;;;2.80;;
15071;SDS011;7635;56.696;13.002;2024-01-10T15:15:09;4.67;;;2.40;;
15071;SDS011;7635;56.696;13.002;2024-01-10T15:17:42;5.13;;;2.60;;
15071;SDS011;7635;56.696;13.002;2024-01-10T15:20:10;5.83;;;2.97;;
15071;SDS011;7635;56.696;13.002;2024-01-10T15:22:39;5.07;;;3.20;;
15071;SDS011;7635;56.696;13.002;2024-01-10T15:25:07;4.83;;;2.63;;
15071;SDS011;7635;56.696;13.002;2024-01-10T15:27:41;5.23;;;2.73;;
15071;SDS011;7635;56.696;13.002;2024-01-10T15:30:18;6.10;;;3.10;;
15071;SDS011;7635;56.696;13.002;2024-01-10T15:32:49;5.83;;;3.57;;
15071;SDS011;7635;56.696;13.002;2024-01-10T15:35:22;7.07;;;2.70;;
15071;SDS011;7635;56.696;13.002;2024-01-10T15:37:49;5.13;;;2.77;;
15071;SDS011;7635;56.696;13.002;2024-01-10T15:40:17;4.90;;;3.00;;
15071;SDS011;7635;56.696;13.002;2024-01-10T15:42:46;6.13;;;3.03;;
15071;SDS011;7635;56.696;13.002;2024-01-10T15:45:13;9.67;;;3.70;;
15071;SDS011;7635;56.696;13.002;2024-01-10T15:47:41;5.13;;;3.60;;
15071;SDS011;7635;56.696;13.002;2024-01-10T15:50:14;6.30;;;2.90;;
15071;SDS011;7635;56.696;13.002;2024-01-10T15:52:41;5.13;;;2.53;;
15071;SDS011;7635;56.696;13.002;2024-01-10T15:55:11;5.50;;;3.17;;
15071;SDS011;7635;56.696;13.002;2024-01-10T15:57:39;6.40;;;3.40;;
15071;SDS011;7635;56.696;13.002;2024-01-10T16:00:11;4.67;;;3.17;;
15071;SDS011;7635;56.696;13.002;2024-01-10T16:02:42;6.43;;;3.47;;
15071;SDS011;7635;56.696;13.002;2024-01-10T16:05:10;4.40;;;2.57;;
15071;SDS011;7635;56.696;13.002;2024-01-10T16:07:38;5.77;;;2.83;;
15071;SDS011;7635;56.696;13.002;2024-01-10T16:10:06;3.60;;;2.37;;
15071;SDS011;7635;56.696;13.002;2024-01-10T16:12:33;4.10;;;2.77;;
15071;SDS011;7635;56.696;13.002;2024-01-10T16:15:01;4.10;;;2.43;;
15071;SDS011;7635;56.696;13.002;2024-01-10T16:17:37;3.37;;;2.53;;
15071;SDS011;7635;56.696;13.002;2024-01-10T16:20:29;3.60;;;2.73;;